sensor_id;sensor_type;location;lat;lon;timestamp;pressure;altitude;pressure_sealevel;temperature
73673;BMP280;61972;19.480;-99.240;2023-09-18T00:00:48;77771.75;;;31.48
73673;BMP280;61972;19.480;-99.240;2023-09-18T00:03:21;77775.91;;;31.47
73673;BMP280;61972;19.480;-99.240;2023-09-18T00:05:50;77780.06;;;31.46
73673;BMP280;61972;19.480;-99.240;2023-09-18T00:08:18;77777.44;;;31.46
73673;BMP280;61972;19.480;-99.240;2023-09-18T00:10:53;77785.38;;;31.46
73673;BMP280;61972;19.480;-99.240;2023-09-18T00:13:20;77780.06;;;31.46
73673;BMP280;61972;19.480;-99.240;2023-09-18T00:15:46;77789.00;;;31.45
73673;BMP280;61972;19.480;-99.240;2023-09-18T00:18:14;77788.47;;;31.44
73673;BMP280;61972;19.480;-99.240;2023-09-18T00:20:41;77788.47;;;31.44
73673;BMP280;61972;19.480;-99.240;2023-09-18T00:23:09;77792.06;;;31.43
73673;BMP280;61972;19.480;-99.240;2023-09-18T00:25:35;77791.53;;;31.42
73673;BMP280;61972;19.480;-99.240;2023-09-18T00:28:06;77789.84;;;31.41
73673;BMP280;61972;19.480;-99.240;2023-09-18T00:30:33;77797.25;;;31.40
73673;BMP280;61972;19.480;-99.240;2023-09-18T00:32:59;77809.34;;;31.39
73673;BMP280;61972;19.480;-99.240;2023-09-18T00:35:25;77817.69;;;31.37
73673;BMP280;61972;19.480;-99.240;2023-09-18T00:37:51;77822.97;;;31.37
73673;BMP280;61972;19.480;-99.240;2023-09-18T00:40:18;77832.44;;;31.36
73673;BMP280;61972;19.480;-99.240;2023-09-18T00:42:45;77832.44;;;31.36
73673;BMP280;61972;19.480;-99.240;2023-09-18T00:45:11;77842.03;;;31.38
73673;BMP280;61972;19.480;-99.240;2023-09-18T00:47:37;77852.59;;;31.38
73673;BMP280;61972;19.480;-99.240;2023-09-18T00:50:06;77854.13;;;31.37
73673;BMP280;61972;19.480;-99.240;2023-09-18T00:52:34;77862.03;;;31.37
73673;BMP280;61972;19.480;-99.240;2023-09-18T00:55:00;77858.84;;;31.36
73673;BMP280;61972;19.480;-99.240;2023-09-18T00:57:28;77864.13;;;31.36
73673;BMP280;61972;19.480;-99.240;2023-09-18T00:59:54;77857.72;;;31.35
73673;BMP280;61972;19.480;-99.240;2023-09-18T01:02:20;77853.44;;;31.34
73673;BMP280;61972;19.480;-99.240;2023-09-18T01:04:48;77870.25;;;31.32
73673;BMP280;61972;19.480;-99.240;2023-09-18T01:07:15;77868.06;;;31.30
73673;BMP280;61972;19.480;-99.240;2023-09-18T01:09:41;77860.00;;;31.27
73673;BMP280;61972;19.480;-99.240;2023-09-18T01:12:18;77862.53;;;31.25
73673;BMP280;61972;19.480;-99.240;2023-09-18T01:14:56;77853.91;;;31.22
73673;BMP280;61972;19.480;-99.240;2023-09-18T01:17:23;77858.09;;;31.21
73673;BMP280;61972;19.480;-99.240;2023-09-18T01:19:50;77866.44;;;31.19
73673;BMP280;61972;19.480;-99.240;2023-09-18T01:22:17;77868.41;;;31.16
73673;BMP280;61972;19.480;-99.240;2023-09-18T01:24:44;77876.75;;;31.13
73673;BMP280;61972;19.480;-99.240;2023-09-18T01:27:14;77877.19;;;31.11
73673;BMP280;61972;19.480;-99.240;2023-09-18T01:29:43;77879.16;;;31.08
73673;BMP280;61972;19.480;-99.240;2023-09-18T01:32:09;77884.84;;;31.06
73673;BMP280;61972;19.480;-99.240;2023-09-18T01:34:39;77880.97;;;31.03
73673;BMP280;61972;19.480;-99.240;2023-09-18T01:37:11;77883.50;;;31.00
73673;BMP280;61972;19.480;-99.240;2023-09-18T01:39:39;77878.63;;;30.98
73673;BMP280;61972;19.480;-99.240;2023-09-18T01:42:06;77873.78;;;30.96
73673;BMP280;61972;19.480;-99.240;2023-09-18T01:44:36;77882.13;;;30.94
73673;BMP280;61972;19.480;-99.240;2023-09-18T01:47:11;77890.50;;;30.92
73673;BMP280;61972;19.480;-99.240;2023-09-18T01:49:39;77888.25;;;30.90
73673;BMP280;61972;19.480;-99.240;2023-09-18T01:52:07;77891.31;;;30.88
73673;BMP280;61972;19.480;-99.240;2023-09-18T01:54:34;77900.75;;;30.87
73673;BMP280;61972;19.480;-99.240;2023-09-18T01:57:01;77892.16;;;30.84
73673;BMP280;61972;19.480;-99.240;2023-09-18T01:59:28;77889.94;;;30.82
73673;BMP280;61972;19.480;-99.240;2023-09-18T02:01:54;77893.00;;;30.80
73673;BMP280;61972;19.480;-99.240;2023-09-18T02:04:22;77899.25;;;30.78
73673;BMP280;61972;19.480;-99.240;2023-09-18T02:06:50;77907.59;;;30.76
73673;BMP280;61972;19.480;-99.240;2023-09-18T02:09:17;77908.59;;;30.74
73673;BMP280;61972;19.480;-99.240;2023-09-18T02:11:45;77912.19;;;30.73
73673;BMP280;61972;19.480;-99.240;2023-09-18T02:14:12;77914.72;;;30.70
73673;BMP280;61972;19.480;-99.240;2023-09-18T02:16:40;77915.69;;;30.69
73673;BMP280;61972;19.480;-99.240;2023-09-18T02:19:10;77921.50;;;30.69
73673;BMP280;61972;19.480;-99.240;2023-09-18T02:21:36;77928.91;;;30.69
73673;BMP280;61972;19.480;-99.240;2023-09-18T02:24:03;77935.25;;;30.70
73673;BMP280;61972;19.480;-99.240;2023-09-18T02:26:29;77931.66;;;30.71
73673;BMP280;61972;19.480;-99.240;2023-09-18T02:28:58;77931.09;;;30.71
73673;BMP280;61972;19.480;-99.240;2023-09-18T02:31:25;77933.88;;;30.73
73673;BMP280;61972;19.480;-99.240;2023-09-18T02:33:51;77938.72;;;30.76
73673;BMP280;61972;19.480;-99.240;2023-09-18T02:36:17;77937.19;;;30.77
73673;BMP280;61972;19.480;-99.240;2023-09-18T02:38:43;77935.22;;;30.80
73673;BMP280;61972;19.480;-99.240;2023-09-18T02:41:10;77931.06;;;30.81
73673;BMP280;61972;19.480;-99.240;2023-09-18T02:43:36;77933.56;;;30.88
73673;BMP280;61972;19.480;-99.240;2023-09-18T02:46:05;77930.19;;;30.95
73673;BMP280;61972;19.480;-99.240;2023-09-18T02:48:32;77943.78;;;31.02
73673;BMP280;61972;19.480;-99.240;2023-09-18T02:50:59;77945.72;;;31.09
73673;BMP280;61972;19.480;-99.240;2023-09-18T02:53:26;77949.56;;;31.12
73673;BMP280;61972;19.480;-99.240;2023-09-18T02:55:55;77957.09;;;31.15
73673;BMP280;61972;19.480;-99.240;2023-09-18T02:58:22;77959.84;;;31.17
73673;BMP280;61972;19.480;-99.240;2023-09-18T03:00:49;77966.22;;;31.18
73673;BMP280;61972;19.480;-99.240;2023-09-18T03:03:17;77967.88;;;31.20
73673;BMP280;61972;19.480;-99.240;2023-09-18T03:05:44;77967.88;;;31.20
73673;BMP280;61972;19.480;-99.240;2023-09-18T03:08:11;77976.78;;;31.18
73673;BMP280;61972;19.480;-99.240;2023-09-18T03:10:40;77979.41;;;31.18
73673;BMP280;61972;19.480;-99.240;2023-09-18T03:13:07;77975.13;;;31.17
73673;BMP280;61972;19.480;-99.240;2023-09-18T03:15:34;77988.75;;;31.15
73673;BMP280;61972;19.480;-99.240;2023-09-18T03:18:01;77992.94;;;31.13
73673;BMP280;61972;19.480;-99.240;2023-09-18T03:20:28;77998.09;;;31.11
73673;BMP280;61972;19.480;-99.240;2023-09-18T03:22:56;77997.94;;;31.08
73673;BMP280;61972;19.480;-99.240;2023-09-18T03:25:23;78001.00;;;31.06
73673;BMP280;61972;19.480;-99.240;2023-09-18T03:27:51;78000.56;;;31.08
73673;BMP280;61972;19.480;-99.240;2023-09-18T03:30:21;78006.28;;;31.06
73673;BMP280;61972;19.480;-99.240;2023-09-18T03:32:49;78011.56;;;31.06
73673;BMP280;61972;19.480;-99.240;2023-09-18T03:35:15;78017.94;;;31.07
73673;BMP280;61972;19.480;-99.240;2023-09-18T03:37:48;78020.16;;;31.09
73673;BMP280;61972;19.480;-99.240;2023-09-18T03:40:16;78020.72;;;31.10
73673;BMP280;61972;19.480;-99.240;2023-09-18T03:42:43;78033.50;;;31.12
73673;BMP280;61972;19.480;-99.240;2023-09-18T03:45:09;78033.50;;;31.12
73673;BMP280;61972;19.480;-99.240;2023-09-18T03:47:40;78032.97;;;31.11
73673;BMP280;61972;19.480;-99.240;2023-09-18T03:50:08;78028.66;;;31.10
73673;BMP280;61972;19.480;-99.240;2023-09-18T03:52:34;78033.78;;;31.07
73673;BMP280;61972;19.480;-99.240;2023-09-18T03:55:00;78030.03;;;31.06
73673;BMP280;61972;19.480;-99.240;2023-09-18T03:57:26;78039.94;;;31.03
73673;BMP280;61972;19.480;-99.240;2023-09-18T03:59:53;78038.25;;;31.02
73673;BMP280;61972;19.480;-99.240;2023-09-18T04:02:20;78045.63;;;31.01
73673;BMP280;61972;19.480;-99.240;2023-09-18T04:04:46;78033.53;;;31.02
73673;BMP280;61972;19.480;-99.240;2023-09-18T04:07:12;78034.66;;;31.03
73673;BMP280;61972;19.480;-99.240;2023-09-18T04:09:42;78027.81;;;31.04
73673;BMP280;61972;19.480;-99.240;2023-09-18T04:12:08;78035.75;;;31.04
73673;BMP280;61972;19.480;-99.240;2023-09-18T04:14:35;78028.81;;;31.03
73673;BMP280;61972;19.480;-99.240;2023-09-18T04:17:02;78027.69;;;31.02
73673;BMP280;61972;19.480;-99.240;2023-09-18T04:19:28;78022.41;;;31.02
73673;BMP280;61972;19.480;-99.240;2023-09-18T04:21:55;78038.81;;;31.02
73673;BMP280;61972;19.480;-99.240;2023-09-18T04:24:22;78035.06;;;31.01
73673;BMP280;61972;19.480;-99.240;2023-09-18T04:26:49;78022.41;;;31.02
73673;BMP280;61972;19.480;-99.240;2023-09-18T04:29:18;78022.41;;;31.02
73673;BMP280;61972;19.480;-99.240;2023-09-18T04:31:45;78032.41;;;31.01
73673;BMP280;61972;19.480;-99.240;2023-09-18T04:34:12;78033.53;;;31.02
73673;BMP280;61972;19.480;-99.240;2023-09-18T04:36:39;78041.56;;;31.05
73673;BMP280;61972;19.480;-99.240;2023-09-18T04:39:05;78043.25;;;31.06
73673;BMP280;61972;19.480;-99.240;2023-09-18T04:41:32;78039.63;;;31.08
73673;BMP280;61972;19.480;-99.240;2023-09-18T04:43:59;78036.56;;;31.10
73673;BMP280;61972;19.480;-99.240;2023-09-18T04:46:25;78029.31;;;31.13
73673;BMP280;61972;19.480;-99.240;2023-09-18T04:48:52;78023.09;;;31.15
73673;BMP280;61972;19.480;-99.240;2023-09-18T04:51:18;78022.09;;;31.16
73673;BMP280;61972;19.480;-99.240;2023-09-18T04:53:44;78022.09;;;31.16
73673;BMP280;61972;19.480;-99.240;2023-09-18T04:56:10;78026.81;;;31.16
73673;BMP280;61972;19.480;-99.240;2023-09-18T04:58:37;78028.78;;;31.12
73673;BMP280;61972;19.480;-99.240;2023-09-18T05:01:03;78026.56;;;31.10
73673;BMP280;61972;19.480;-99.240;2023-09-18T05:03:34;78028.50;;;31.07
73673;BMP280;61972;19.480;-99.240;2023-09-18T05:06:00;78025.31;;;31.07
73673;BMP280;61972;19.480;-99.240;2023-09-18T05:08:28;78028.25;;;31.02
73673;BMP280;61972;19.480;-99.240;2023-09-18T05:10:54;78030.75;;;31.00
73673;BMP280;61972;19.480;-99.240;2023-09-18T05:13:21;78032.72;;;30.97
73673;BMP280;61972;19.480;-99.240;2023-09-18T05:15:47;78024.66;;;30.94
73673;BMP280;61972;19.480;-99.240;2023-09-18T05:18:13;78016.59;;;30.91
73673;BMP280;61972;19.480;-99.240;2023-09-18T05:20:39;78020.22;;;30.90
73673;BMP280;61972;19.480;-99.240;2023-09-18T05:23:06;78022.16;;;30.87
73673;BMP280;61972;19.480;-99.240;2023-09-18T05:25:33;78014.66;;;30.85
73673;BMP280;61972;19.480;-99.240;2023-09-18T05:28:03;78015.09;;;30.83
73673;BMP280;61972;19.480;-99.240;2023-09-18T05:30:33;78010.22;;;30.81
73673;BMP280;61972;19.480;-99.240;2023-09-18T05:33:05;78010.66;;;30.79
73673;BMP280;61972;19.480;-99.240;2023-09-18T05:35:34;78009.97;;;30.76
73673;BMP280;61972;19.480;-99.240;2023-09-18T05:38:03;78010.38;;;30.73
73673;BMP280;61972;19.480;-99.240;2023-09-18T05:40:29;78013.84;;;30.69
73673;BMP280;61972;19.480;-99.240;2023-09-18T05:42:56;78016.91;;;30.67
73673;BMP280;61972;19.480;-99.240;2023-09-18T05:45:22;78010.94;;;30.64
73673;BMP280;61972;19.480;-99.240;2023-09-18T05:47:49;78012.91;;;30.61
73673;BMP280;61972;19.480;-99.240;2023-09-18T05:50:16;78008.03;;;30.59
73673;BMP280;61972;19.480;-99.240;2023-09-18T05:52:44;78012.06;;;30.55
73673;BMP280;61972;19.480;-99.240;2023-09-18T05:58:35;78004.44;;;30.51
73673;BMP280;61972;19.480;-99.240;2023-09-18T06:01:01;78004.84;;;30.49
73673;BMP280;61972;19.480;-99.240;2023-09-18T06:03:28;78010.53;;;30.47
73673;BMP280;61972;19.480;-99.240;2023-09-18T06:05:56;78001.94;;;30.44
73673;BMP280;61972;19.480;-99.240;2023-09-18T06:08:22;78006.50;;;30.41
73673;BMP280;61972;19.480;-99.240;2023-09-18T06:11:00;78007.91;;;30.37
73673;BMP280;61972;19.480;-99.240;2023-09-18T06:13:27;78014.16;;;30.35
73673;BMP280;61972;19.480;-99.240;2023-09-18T06:15:54;78009.84;;;30.34
73673;BMP280;61972;19.480;-99.240;2023-09-18T06:18:22;78007.63;;;30.32
73673;BMP280;61972;19.480;-99.240;2023-09-18T06:20:49;78005.97;;;30.30
73673;BMP280;61972;19.480;-99.240;2023-09-18T06:23:16;78007.50;;;30.29
73673;BMP280;61972;19.480;-99.240;2023-09-18T06:25:42;78002.63;;;30.27
73673;BMP280;61972;19.480;-99.240;2023-09-18T06:28:08;78003.06;;;30.25
73673;BMP280;61972;19.480;-99.240;2023-09-18T06:30:34;78000.25;;;30.23
73673;BMP280;61972;19.480;-99.240;2023-09-18T06:33:02;77999.16;;;30.22
73673;BMP280;61972;19.480;-99.240;2023-09-18T06:35:29;77996.41;;;30.19
73673;BMP280;61972;19.480;-99.240;2023-09-18T06:37:55;77988.88;;;30.17
73673;BMP280;61972;19.480;-99.240;2023-09-18T06:40:24;77995.69;;;30.16
73673;BMP280;61972;19.480;-99.240;2023-09-18T06:42:51;77988.19;;;30.14
73673;BMP280;61972;19.480;-99.240;2023-09-18T06:45:21;77987.13;;;30.13
73673;BMP280;61972;19.480;-99.240;2023-09-18T06:47:47;77979.22;;;30.13
73673;BMP280;61972;19.480;-99.240;2023-09-18T06:50:13;77986.00;;;30.12
73673;BMP280;61972;19.480;-99.240;2023-09-18T06:52:39;77990.16;;;30.11
73673;BMP280;61972;19.480;-99.240;2023-09-18T06:55:07;77992.22;;;30.10
73673;BMP280;61972;19.480;-99.240;2023-09-18T06:57:33;77988.06;;;30.11
73673;BMP280;61972;19.480;-99.240;2023-09-18T07:00:00;77982.25;;;30.11
73673;BMP280;61972;19.480;-99.240;2023-09-18T07:02:26;77984.31;;;30.10
73673;BMP280;61972;19.480;-99.240;2023-09-18T07:04:53;77988.06;;;30.11
73673;BMP280;61972;19.480;-99.240;2023-09-18T07:07:19;77976.97;;;30.11
73673;BMP280;61972;19.480;-99.240;2023-09-18T07:09:51;77982.78;;;30.11
73673;BMP280;61972;19.480;-99.240;2023-09-18T07:12:17;77980.72;;;30.12
73673;BMP280;61972;19.480;-99.240;2023-09-18T07:14:47;77972.81;;;30.12
73673;BMP280;61972;19.480;-99.240;2023-09-18T07:17:13;77972.81;;;30.12
73673;BMP280;61972;19.480;-99.240;2023-09-18T07:19:39;77972.81;;;30.12
73673;BMP280;61972;19.480;-99.240;2023-09-18T07:22:05;77972.81;;;30.12
73673;BMP280;61972;19.480;-99.240;2023-09-18T07:24:31;77972.25;;;30.11
73673;BMP280;61972;19.480;-99.240;2023-09-18T07:26:57;77963.78;;;30.11
73673;BMP280;61972;19.480;-99.240;2023-09-18T07:29:23;77970.19;;;30.12
73673;BMP280;61972;19.480;-99.240;2023-09-18T07:31:53;77967.53;;;30.12
73673;BMP280;61972;19.480;-99.240;2023-09-18T07:34:19;77962.81;;;30.12
73673;BMP280;61972;19.480;-99.240;2023-09-18T07:36:45;77965.47;;;30.12
73673;BMP280;61972;19.480;-99.240;2023-09-18T07:39:11;77968.66;;;30.13
73673;BMP280;61972;19.480;-99.240;2023-09-18T07:41:37;77962.81;;;30.12
73673;BMP280;61972;19.480;-99.240;2023-09-18T07:44:05;77962.28;;;30.12
73673;BMP280;61972;19.480;-99.240;2023-09-18T07:46:31;77959.63;;;30.12
73673;BMP280;61972;19.480;-99.240;2023-09-18T07:48:57;77950.06;;;30.10
73673;BMP280;61972;19.480;-99.240;2023-09-18T07:51:23;77953.25;;;30.11
73673;BMP280;61972;19.480;-99.240;2023-09-18T07:53:49;77945.34;;;30.11
73673;BMP280;61972;19.480;-99.240;2023-09-18T07:56:15;77940.06;;;30.11
73673;BMP280;61972;19.480;-99.240;2023-09-18T07:58:42;77938.69;;;30.14
73673;BMP280;61972;19.480;-99.240;2023-09-18T08:01:08;77932.00;;;30.18
73673;BMP280;61972;19.480;-99.240;2023-09-18T08:03:35;77931.19;;;30.22
73673;BMP280;61972;19.480;-99.240;2023-09-18T08:06:02;77927.84;;;30.29
73673;BMP280;61972;19.480;-99.240;2023-09-18T08:08:30;77932.41;;;30.35
73673;BMP280;61972;19.480;-99.240;2023-09-18T08:11:00;77924.34;;;30.43
73673;BMP280;61972;19.480;-99.240;2023-09-18T08:13:27;77928.22;;;30.56
73673;BMP280;61972;19.480;-99.240;2023-09-18T08:15:53;77926.25;;;30.69
73673;BMP280;61972;19.480;-99.240;2023-09-18T08:18:19;77924.41;;;30.84
73673;BMP280;61972;19.480;-99.240;2023-09-18T08:20:46;77918.22;;;30.98
73673;BMP280;61972;19.480;-99.240;2023-09-18T08:23:13;77919.84;;;31.09
73673;BMP280;61972;19.480;-99.240;2023-09-18T08:25:39;77918.69;;;31.18
73673;BMP280;61972;19.480;-99.240;2023-09-18T08:28:06;77909.38;;;31.22
73673;BMP280;61972;19.480;-99.240;2023-09-18T08:30:32;77908.94;;;31.24
73673;BMP280;61972;19.480;-99.240;2023-09-18T08:32:59;77910.59;;;31.25
73673;BMP280;61972;19.480;-99.240;2023-09-18T08:35:25;77912.00;;;31.22
73673;BMP280;61972;19.480;-99.240;2023-09-18T08:37:54;77912.00;;;31.22
73673;BMP280;61972;19.480;-99.240;2023-09-18T08:40:22;77907.41;;;31.25
73673;BMP280;61972;19.480;-99.240;2023-09-18T08:42:51;77907.66;;;31.30
73673;BMP280;61972;19.480;-99.240;2023-09-18T08:45:31;77900.25;;;31.40
73673;BMP280;61972;19.480;-99.240;2023-09-18T08:48:00;77899.63;;;31.49
73673;BMP280;61972;19.480;-99.240;2023-09-18T08:50:28;77897.66;;;31.52
73673;BMP280;61972;19.480;-99.240;2023-09-18T08:52:55;77898.34;;;31.56
73673;BMP280;61972;19.480;-99.240;2023-09-18T08:55:23;77900.56;;;31.58
73673;BMP280;61972;19.480;-99.240;2023-09-18T08:57:50;77903.88;;;31.61
73673;BMP280;61972;19.480;-99.240;2023-09-18T09:00:16;77903.13;;;31.67
73673;BMP280;61972;19.480;-99.240;2023-09-18T09:02:45;77901.97;;;31.76
73673;BMP280;61972;19.480;-99.240;2023-09-18T09:05:14;77900.91;;;31.87
73673;BMP280;61972;19.480;-99.240;2023-09-18T09:07:40;77909.31;;;31.98
73673;BMP280;61972;19.480;-99.240;2023-09-18T09:10:06;77907.16;;;32.08
73673;BMP280;61972;19.480;-99.240;2023-09-18T09:15:21;77900.19;;;32.28
73673;BMP280;61972;19.480;-99.240;2023-09-18T09:17:48;77904.84;;;32.38
73673;BMP280;61972;19.480;-99.240;2023-09-18T09:20:15;77904.63;;;32.45
73673;BMP280;61972;19.480;-99.240;2023-09-18T09:22:44;77905.41;;;32.51
73673;BMP280;61972;19.480;-99.240;2023-09-18T09:27:46;77902.88;;;32.65
73673;BMP280;61972;19.480;-99.240;2023-09-18T09:30:22;77903.66;;;32.71
73673;BMP280;61972;19.480;-99.240;2023-09-18T09:32:53;77903.81;;;32.74
73673;BMP280;61972;19.480;-99.240;2023-09-18T09:35:27;77905.22;;;32.70
73673;BMP280;61972;19.480;-99.240;2023-09-18T09:37:57;77910.19;;;32.62
73673;BMP280;61972;19.480;-99.240;2023-09-18T09:40:24;77905.53;;;32.53
73673;BMP280;61972;19.480;-99.240;2023-09-18T09:42:52;77903.41;;;32.41
73673;BMP280;61972;19.480;-99.240;2023-09-18T09:45:20;77898.53;;;32.27
73673;BMP280;61972;19.480;-99.240;2023-09-18T09:47:46;77899.47;;;32.13
73673;BMP280;61972;19.480;-99.240;2023-09-18T09:50:14;77894.56;;;31.99
73673;BMP280;61972;19.480;-99.240;2023-09-18T09:52:46;77905.53;;;31.84
73673;BMP280;61972;19.480;-99.240;2023-09-18T09:57:51;77898.34;;;31.56
73673;BMP280;61972;19.480;-99.240;2023-09-18T10:00:18;77898.31;;;31.43
73673;BMP280;61972;19.480;-99.240;2023-09-18T10:02:58;77900.28;;;31.30
73673;BMP280;61972;19.480;-99.240;2023-09-18T10:05:31;77898.69;;;31.19
73673;BMP280;61972;19.480;-99.240;2023-09-18T10:07:59;77903.47;;;31.09
73673;BMP280;61972;19.480;-99.240;2023-09-18T10:10:32;77898.66;;;30.97
73673;BMP280;61972;19.480;-99.240;2023-09-18T10:13:02;77903.94;;;30.87
73673;BMP280;61972;19.480;-99.240;2023-09-18T10:15:34;77897.75;;;30.79
73673;BMP280;61972;19.480;-99.240;2023-09-18T10:18:07;77905.69;;;30.69
73673;BMP280;61972;19.480;-99.240;2023-09-18T10:20:39;77904.34;;;30.63
73673;BMP280;61972;19.480;-99.240;2023-09-18T10:23:15;77905.72;;;30.60
73673;BMP280;61972;19.480;-99.240;2023-09-18T10:25:55;77904.75;;;30.61
73673;BMP280;61972;19.480;-99.240;2023-09-18T10:28:26;77911.94;;;30.68
73673;BMP280;61972;19.480;-99.240;2023-09-18T10:30:57;77906.66;;;30.78
73673;BMP280;61972;19.480;-99.240;2023-09-18T10:33:25;77908.28;;;30.89
73673;BMP280;61972;19.480;-99.240;2023-09-18T10:35:53;77905.72;;;31.01
73673;BMP280;61972;19.480;-99.240;2023-09-18T10:38:20;77909.41;;;31.12
73673;BMP280;61972;19.480;-99.240;2023-09-18T10:40:47;77912.44;;;31.20
73673;BMP280;61972;19.480;-99.240;2023-09-18T10:43:16;77908.94;;;31.24
73673;BMP280;61972;19.480;-99.240;2023-09-18T10:45:43;77904.88;;;31.27
73673;BMP280;61972;19.480;-99.240;2023-09-18T10:48:11;77911.44;;;31.31
73673;BMP280;61972;19.480;-99.240;2023-09-18T10:50:39;77909.44;;;31.34
73673;BMP280;61972;19.480;-99.240;2023-09-18T10:53:06;77900.66;;;31.38
73673;BMP280;61972;19.480;-99.240;2023-09-18T10:55:33;77906.22;;;31.43
73673;BMP280;61972;19.480;-99.240;2023-09-18T10:58:00;77917.16;;;31.51
73673;BMP280;61972;19.480;-99.240;2023-09-18T11:00:28;77913.78;;;31.58
73673;BMP280;61972;19.480;-99.240;2023-09-18T11:03:13;77917.88;;;31.66
73673;BMP280;61972;19.480;-99.240;2023-09-18T11:05:46;77918.94;;;31.77
73673;BMP280;61972;19.480;-99.240;2023-09-18T11:08:30;77920.41;;;31.86
73673;BMP280;61972;19.480;-99.240;2023-09-18T11:11:05;77916.59;;;31.95
73673;BMP280;61972;19.480;-99.240;2023-09-18T11:13:44;77922.34;;;32.05
73673;BMP280;61972;19.480;-99.240;2023-09-18T11:16:32;77923.69;;;32.11
73673;BMP280;61972;19.480;-99.240;2023-09-18T11:21:32;77922.66;;;32.22
73673;BMP280;61972;19.480;-99.240;2023-09-18T11:26:35;77929.94;;;32.32
73673;BMP280;61972;19.480;-99.240;2023-09-18T11:29:04;77927.09;;;32.39
73673;BMP280;61972;19.480;-99.240;2023-09-18T11:31:51;77932.06;;;32.43
73673;BMP280;61972;19.480;-99.240;2023-09-18T11:34:29;77931.78;;;32.48
73673;BMP280;61972;19.480;-99.240;2023-09-18T11:37:22;77932.00;;;32.53
73673;BMP280;61972;19.480;-99.240;2023-09-18T11:39:51;77929.56;;;32.58
73673;BMP280;61972;19.480;-99.240;2023-09-18T11:42:19;77931.91;;;32.63
73673;BMP280;61972;19.480;-99.240;2023-09-18T11:44:49;77950.13;;;32.67
73673;BMP280;61972;19.480;-99.240;2023-09-18T11:47:16;77946.59;;;32.72
73673;BMP280;61972;19.480;-99.240;2023-09-18T11:49:48;77946.16;;;32.74
73673;BMP280;61972;19.480;-99.240;2023-09-18T11:52:17;77947.91;;;32.78
73673;BMP280;61972;19.480;-99.240;2023-09-18T11:54:43;77945.94;;;32.81
73673;BMP280;61972;19.480;-99.240;2023-09-18T11:57:13;77948.16;;;32.83
73673;BMP280;61972;19.480;-99.240;2023-09-18T11:59:41;77950.34;;;32.85
73673;BMP280;61972;19.480;-99.240;2023-09-18T12:02:09;77955.22;;;32.87
73673;BMP280;61972;19.480;-99.240;2023-09-18T12:04:37;77953.22;;;32.90
73673;BMP280;61972;19.480;-99.240;2023-09-18T12:07:05;77958.06;;;32.92
73673;BMP280;61972;19.480;-99.240;2023-09-18T12:09:32;77952.94;;;32.95
73673;BMP280;61972;19.480;-99.240;2023-09-18T12:12:02;77958.75;;;32.95
73673;BMP280;61972;19.480;-99.240;2023-09-18T12:14:32;77956.78;;;32.98
73673;BMP280;61972;19.480;-99.240;2023-09-18T12:17:02;77953.16;;;33.00
73673;BMP280;61972;19.480;-99.240;2023-09-18T12:19:30;77954.22;;;33.01
73673;BMP280;61972;19.480;-99.240;2023-09-18T12:21:56;77957.44;;;33.01
73673;BMP280;61972;19.480;-99.240;2023-09-18T12:24:26;77965.28;;;32.99
73673;BMP280;61972;19.480;-99.240;2023-09-18T12:26:54;77958.34;;;32.97
73673;BMP280;61972;19.480;-99.240;2023-09-18T12:29:20;77963.06;;;32.97
73673;BMP280;61972;19.480;-99.240;2023-09-18T12:31:47;77955.00;;;32.94
73673;BMP280;61972;19.480;-99.240;2023-09-18T12:34:19;77959.19;;;32.93
73673;BMP280;61972;19.480;-99.240;2023-09-18T12:36:50;77962.28;;;32.91
73673;BMP280;61972;19.480;-99.240;2023-09-18T12:39:17;77960.09;;;32.89
73673;BMP280;61972;19.480;-99.240;2023-09-18T12:41:46;77962.19;;;32.88
73673;BMP280;61972;19.480;-99.240;2023-09-18T12:44:13;77965.91;;;32.90
73673;BMP280;61972;19.480;-99.240;2023-09-18T12:46:42;77969.78;;;32.93
73673;BMP280;61972;19.480;-99.240;2023-09-18T12:49:34;77978.41;;;32.96
73673;BMP280;61972;19.480;-99.240;2023-09-18T12:52:02;77983.94;;;33.01
73673;BMP280;61972;19.480;-99.240;2023-09-18T12:57:07;77983.72;;;33.08
73673;BMP280;61972;19.480;-99.240;2023-09-18T12:59:34;77983.28;;;33.11
73673;BMP280;61972;19.480;-99.240;2023-09-18T13:02:08;77980.63;;;33.11
73673;BMP280;61972;19.480;-99.240;2023-09-18T13:04:35;77983.28;;;33.11
73673;BMP280;61972;19.480;-99.240;2023-09-18T13:07:06;77979.19;;;33.02
73673;BMP280;61972;19.480;-99.240;2023-09-18T13:09:34;77978.16;;;32.91
73673;BMP280;61972;19.480;-99.240;2023-09-18T13:12:01;77973.06;;;32.72
73673;BMP280;61972;19.480;-99.240;2023-09-18T13:14:28;77971.00;;;32.50
73673;BMP280;61972;19.480;-99.240;2023-09-18T13:17:00;77971.47;;;32.26
73673;BMP280;61972;19.480;-99.240;2023-09-18T13:19:30;77971.94;;;32.02
73673;BMP280;61972;19.480;-99.240;2023-09-18T13:22:00;77975.13;;;31.80
73673;BMP280;61972;19.480;-99.240;2023-09-18T13:24:30;77970.22;;;31.56
73673;BMP280;61972;19.480;-99.240;2023-09-18T13:26:57;77971.28;;;31.35
73673;BMP280;61972;19.480;-99.240;2023-09-18T13:29:26;77967.66;;;31.15
73673;BMP280;61972;19.480;-99.240;2023-09-18T13:31:52;77971.84;;;30.94
73673;BMP280;61972;19.480;-99.240;2023-09-18T13:34:19;77971.50;;;30.77
73673;BMP280;61972;19.480;-99.240;2023-09-18T13:36:49;77972.22;;;30.60
73673;BMP280;61972;19.480;-99.240;2023-09-18T13:39:15;77975.56;;;30.44
73673;BMP280;61972;19.480;-99.240;2023-09-18T13:41:49;77963.66;;;30.28
73673;BMP280;61972;19.480;-99.240;2023-09-18T13:44:15;77967.09;;;30.14
73673;BMP280;61972;19.480;-99.240;2023-09-18T13:46:42;77969.63;;;30.02
73673;BMP280;61972;19.480;-99.240;2023-09-18T13:49:08;77967.41;;;29.90
73673;BMP280;61972;19.480;-99.240;2023-09-18T13:51:34;77969.47;;;29.80
73673;BMP280;61972;19.480;-99.240;2023-09-18T13:54:00;77968.34;;;29.69
73673;BMP280;61972;19.480;-99.240;2023-09-18T13:56:26;77974.16;;;29.59
73673;BMP280;61972;19.480;-99.240;2023-09-18T13:58:55;77969.97;;;29.51
73673;BMP280;61972;19.480;-99.240;2023-09-18T14:01:25;77976.34;;;29.42
73673;BMP280;61972;19.480;-99.240;2023-09-18T14:03:52;77981.69;;;29.35
73673;BMP280;61972;19.480;-99.240;2023-09-18T14:06:19;77980.84;;;29.29
73673;BMP280;61972;19.480;-99.240;2023-09-18T14:08:45;77981.53;;;29.23